createdAt,value
2022-09-22T00:00:58.780Z,11.06
2022-09-22T00:03:26.100Z,11.00
2022-09-22T00:06:06.908Z,10.96
2022-09-22T00:08:35.153Z,10.91
2022-09-22T00:11:08.252Z,10.88
2022-09-22T00:13:35.899Z,10.88
2022-09-22T00:16:02.668Z,10.85
2022-09-22T00:18:29.290Z,10.83
2022-09-22T00:20:56.093Z,10.81
2022-09-22T00:23:26.561Z,10.81
2022-09-22T00:25:53.001Z,10.80
2022-09-22T00:28:21.799Z,10.77
2022-09-22T00:30:48.237Z,10.74
2022-09-22T00:33:14.726Z,10.71
2022-09-22T00:35:41.239Z,10.68
2022-09-22T00:38:08.099Z,10.67
2022-09-22T00:40:35.769Z,10.64
2022-09-22T00:43:19.133Z,10.61
2022-09-22T00:45:52.171Z,10.57
2022-09-22T00:48:20.054Z,10.54
2022-09-22T00:50:47.603Z,10.52
2022-09-22T00:53:15.827Z,10.51
2022-09-22T00:55:58.902Z,10.48
2022-09-22T00:58:33.174Z,10.46
2022-09-22T01:01:00.207Z,10.41
2022-09-22T01:03:30.145Z,10.39
2022-09-22T01:06:01.867Z,10.36
2022-09-22T01:08:29.670Z,10.35
2022-09-22T01:10:57.279Z,10.30
2022-09-22T01:13:41.461Z,10.27
2022-09-22T01:16:25.611Z,10.25
2022-09-22T01:19:22.919Z,10.21
2022-09-22T01:22:12.644Z,10.18
2022-09-22T01:25:11.385Z,10.14
2022-09-22T01:28:15.251Z,10.10
2022-09-22T01:30:48.208Z,10.07
2022-09-22T01:33:34.076Z,10.03
2022-09-22T01:36:22.830Z,10.01
2022-09-22T01:39:00.982Z,9.99
2022-09-22T01:41:51.880Z,9.97
2022-09-22T01:44:49.199Z,9.96
2022-09-22T01:47:21.097Z,9.94
2022-09-22T01:49:52.031Z,9.92
2022-09-22T01:52:25.812Z,9.91
2022-09-22T01:55:01.021Z,9.88
2022-09-22T01:57:47.630Z,9.86
2022-09-22T02:00:14.509Z,9.83
2022-09-22T02:03:08.494Z,9.81
2022-09-22T02:05:51.629Z,9.79
2022-09-22T02:08:41.524Z,9.76
2022-09-22T02:11:13.883Z,9.76
2022-09-22T02:13:40.811Z,9.74
2022-09-22T02:16:08.348Z,9.73
2022-09-22T02:19:13.532Z,9.75
2022-09-22T02:21:42.065Z,9.74
2022-09-22T02:24:26.387Z,9.74
2022-09-22T02:26:53.010Z,9.75
2022-09-22T02:29:19.676Z,9.74
2022-09-22T02:31:46.488Z,9.73
2022-09-22T02:34:12.992Z,9.72
2022-09-22T02:36:48.883Z,9.71
2022-09-22T02:39:21.158Z,9.71
2022-09-22T02:42:22.848Z,9.68
2022-09-22T02:44:54.692Z,9.69
2022-09-22T02:47:57.252Z,9.67
2022-09-22T02:50:25.939Z,9.67
2022-09-22T02:52:53.443Z,9.66
2022-09-22T02:55:20.044Z,9.66
2022-09-22T02:57:46.470Z,9.66
2022-09-22T03:00:13.403Z,9.65
2022-09-22T03:02:39.807Z,9.66
2022-09-22T03:05:06.588Z,9.65
2022-09-22T03:07:33.046Z,9.64
2022-09-22T03:09:59.460Z,9.64
2022-09-22T03:12:25.841Z,9.62
2022-09-22T03:14:52.314Z,9.62
2022-09-22T03:17:18.709Z,9.63
2022-09-22T03:19:45.119Z,9.61
2022-09-22T03:22:11.537Z,9.62
2022-09-22T03:24:37.937Z,9.58
2022-09-22T03:27:04.323Z,9.55
2022-09-22T03:29:30.722Z,9.55
2022-09-22T03:31:57.153Z,9.54
2022-09-22T03:34:23.556Z,9.51
2022-09-22T03:36:50.044Z,9.49
2022-09-22T03:39:16.453Z,9.49
2022-09-22T03:41:42.847Z,9.47
2022-09-22T03:44:09.360Z,9.46
2022-09-22T03:46:35.757Z,9.46
2022-09-22T03:49:03.231Z,9.46
2022-09-22T03:51:30.026Z,9.47
2022-09-22T03:53:56.440Z,9.47
2022-09-22T03:56:22.852Z,9.49
2022-09-22T03:58:49.900Z,9.49
2022-09-22T04:01:16.402Z,9.49
2022-09-22T04:03:42.829Z,9.51
2022-09-22T04:06:09.348Z,9.50
2022-09-22T04:08:36.213Z,9.51
2022-09-22T04:11:04.596Z,9.53
2022-09-22T04:13:31.040Z,9.53
2022-09-22T04:15:57.465Z,9.53
2022-09-22T04:18:24.170Z,9.54
2022-09-22T04:20:51.313Z,9.52
2022-09-22T04:23:17.696Z,9.53
2022-09-22T04:25:44.120Z,9.53
2022-09-22T04:28:10.626Z,9.55
2022-09-22T04:30:37.487Z,9.56
2022-09-22T04:33:04.015Z,9.56
2022-09-22T04:35:30.516Z,9.56
2022-09-22T04:37:57.975Z,9.56
2022-09-22T04:40:24.808Z,9.56
2022-09-22T04:42:51.608Z,9.55
2022-09-22T04:45:18.136Z,9.57
2022-09-22T04:47:52.774Z,9.58
2022-09-22T04:50:21.367Z,9.59
2022-09-22T04:52:49.876Z,9.61
2022-09-22T04:55:16.350Z,9.63
2022-09-22T04:57:47.338Z,9.65
2022-09-22T05:00:13.760Z,9.67
2022-09-22T05:02:40.242Z,9.69
2022-09-22T05:05:08.187Z,9.70
2022-09-22T05:07:34.825Z,9.70
2022-09-22T05:10:02.541Z,9.71
2022-09-22T05:12:28.982Z,9.71
2022-09-22T05:14:55.441Z,9.71
2022-09-22T05:17:21.831Z,9.73
2022-09-22T05:19:48.402Z,9.77
2022-09-22T05:22:15.099Z,9.79
2022-09-22T05:24:42.500Z,9.82
2022-09-22T05:27:09.195Z,9.84
2022-09-22T05:29:36.636Z,9.86
2022-09-22T05:32:03.142Z,9.88
2022-09-22T05:34:29.610Z,9.91
2022-09-22T05:36:56.002Z,9.93
2022-09-22T05:39:22.421Z,9.93
2022-09-22T05:41:49.887Z,9.97
2022-09-22T05:44:16.596Z,10.00
2022-09-22T05:46:42.992Z,10.03
2022-09-22T05:49:09.413Z,10.06
2022-09-22T05:51:35.825Z,10.06
2022-09-22T05:54:02.710Z,10.09
2022-09-22T05:56:31.226Z,10.11
2022-09-22T05:58:57.915Z,10.14
2022-09-22T06:01:24.435Z,10.15
2022-09-22T06:03:50.951Z,10.18
2022-09-22T06:06:17.372Z,10.23
2022-09-22T06:08:48.382Z,10.24
2022-09-22T06:11:15.420Z,10.27
2022-09-22T06:13:41.844Z,10.29
2022-09-22T06:16:08.340Z,10.31
2022-09-22T06:18:34.797Z,10.35
2022-09-22T06:21:01.182Z,10.36
2022-09-22T06:23:27.588Z,10.39
2022-09-22T06:25:58.652Z,10.43
2022-09-22T06:28:25.330Z,10.45
2022-09-22T06:30:51.954Z,10.48
2022-09-22T06:33:18.923Z,10.50
2022-09-22T06:35:46.162Z,10.52
2022-09-22T06:38:14.917Z,10.54
2022-09-22T06:40:42.360Z,10.59
2022-09-22T06:43:15.124Z,10.62
2022-09-22T06:45:42.839Z,10.64
2022-09-22T06:48:10.861Z,10.67
2022-09-22T06:50:38.746Z,10.70
2022-09-22T06:53:07.201Z,10.74
2022-09-22T06:55:33.759Z,10.77
2022-09-22T06:58:01.078Z,10.80
2022-09-22T07:00:31.574Z,10.83
2022-09-22T07:03:13.553Z,10.85
2022-09-22T07:05:39.969Z,10.88
2022-09-22T07:08:08.064Z,10.91
2022-09-22T07:10:38.106Z,10.95
2022-09-22T07:13:05.878Z,10.98
2022-09-22T07:15:34.055Z,11.02
2022-09-22T07:18:00.486Z,11.06
2022-09-22T07:20:27.029Z,11.09
2022-09-22T07:23:00.631Z,11.11
2022-09-22T07:25:28.306Z,11.15
2022-09-22T07:27:57.727Z,11.18
2022-09-22T07:30:26.145Z,11.21
2022-09-22T07:32:52.611Z,11.24
2022-09-22T07:35:19.015Z,11.26
2022-09-22T07:37:46.229Z,11.29
2022-09-22T07:40:14.518Z,11.31
2022-09-22T07:42:41.096Z,11.36
2022-09-22T07:45:14.222Z,11.40
2022-09-22T07:48:02.040Z,11.45
2022-09-22T07:50:29.382Z,11.49
2022-09-22T07:52:55.862Z,11.50
2022-09-22T07:55:24.088Z,11.55
2022-09-22T07:57:58.799Z,11.60
2022-09-22T08:00:27.686Z,11.65
2022-09-22T08:02:55.499Z,11.70
2022-09-22T08:05:23.214Z,11.74
2022-09-22T08:07:49.635Z,11.78
2022-09-22T08:10:17.104Z,11.82
2022-09-22T08:12:44.199Z,11.86
2022-09-22T08:15:11.111Z,11.93
2022-09-22T08:17:39.340Z,11.99
2022-09-22T08:20:07.803Z,12.04
2022-09-22T08:22:35.126Z,12.10
2022-09-22T08:25:01.504Z,12.15
2022-09-22T08:27:27.921Z,12.22
2022-09-22T08:29:55.022Z,12.30
2022-09-22T08:32:21.618Z,12.37
2022-09-22T08:34:47.999Z,12.45
2022-09-22T08:37:14.400Z,12.53
2022-09-22T08:39:40.803Z,12.60
2022-09-22T08:42:18.312Z,12.68
2022-09-22T08:44:58.266Z,12.77
2022-09-22T08:47:54.851Z,12.84
2022-09-22T08:51:10.192Z,12.94
2022-09-22T08:53:49.634Z,13.00
2022-09-22T08:56:29.164Z,13.08
2022-09-22T08:59:09.061Z,13.18
2022-09-22T09:02:29.847Z,13.28
2022-09-22T09:05:33.272Z,13.39
2022-09-22T09:08:18.906Z,13.48
2022-09-22T09:10:53.002Z,13.55
2022-09-22T09:13:54.796Z,13.62
2022-09-22T09:16:45.844Z,13.77
2022-09-22T09:19:33.312Z,13.89
2022-09-22T09:22:03.308Z,13.95
2022-09-22T09:27:28.755Z,14.12
2022-09-22T09:30:11.802Z,14.18
2022-09-22T09:32:53.097Z,14.23
2022-09-22T09:35:24.870Z,14.29
2022-09-22T09:37:51.592Z,14.37
2022-09-22T09:40:20.458Z,14.44
2022-09-22T09:42:55.761Z,14.53
2022-09-22T09:45:26.830Z,14.61
2022-09-22T09:48:05.829Z,14.70
2022-09-22T09:50:32.547Z,14.76
2022-09-22T09:52:59.817Z,14.82
2022-09-22T09:55:27.459Z,14.90
2022-09-22T09:58:10.700Z,14.98
2022-09-22T10:00:57.985Z,15.04
2022-09-22T10:03:28.110Z,15.11
2022-09-22T10:06:00.572Z,15.17
2022-09-22T10:08:28.275Z,15.26
2022-09-22T10:10:58.195Z,15.33
2022-09-22T10:13:33.385Z,15.36
2022-09-22T10:16:22.451Z,15.41
2022-09-22T10:19:19.994Z,15.47
2022-09-22T10:21:46.465Z,15.55
2022-09-22T10:24:29.524Z,15.55
2022-09-22T10:26:56.107Z,15.61
2022-09-22T10:29:22.586Z,15.64
2022-09-22T10:32:28.686Z,15.68
2022-09-22T10:34:59.397Z,15.65
2022-09-22T10:37:27.046Z,15.69
2022-09-22T10:39:57.731Z,15.73
2022-09-22T10:42:40.868Z,15.74
2022-09-22T10:45:19.459Z,15.76
2022-09-22T10:47:58.131Z,15.79
2022-09-22T10:50:38.872Z,15.78
2022-09-22T10:53:31.060Z,15.79
2022-09-22T10:56:12.912Z,15.77
2022-09-22T10:59:23.205Z,15.85
2022-09-22T11:02:03.792Z,15.90
2022-09-22T11:04:55.117Z,15.93
2022-09-22T11:07:51.897Z,16.00
2022-09-22T11:10:52.123Z,16.04
2022-09-22T11:13:48.568Z,16.12
2022-09-22T11:16:37.756Z,16.19
2022-09-22T11:19:34.290Z,16.21
2022-09-22T11:22:37.268Z,16.28
2022-09-22T11:25:16.096Z,16.32
2022-09-22T11:28:01.138Z,16.37
2022-09-22T11:30:35.249Z,16.44
2022-09-22T11:33:31.075Z,16.43
2022-09-22T11:36:09.809Z,16.50
2022-09-22T11:38:59.568Z,16.52
2022-09-22T11:41:30.513Z,16.55
2022-09-22T11:44:00.605Z,16.63
2022-09-22T11:46:58.128Z,16.65
2022-09-22T11:49:44.000Z,16.68
2022-09-22T11:52:29.632Z,16.70
2022-09-22T11:55:08.134Z,16.67
2022-09-22T11:57:36.443Z,16.69
2022-09-22T12:00:17.255Z,16.74
2022-09-22T12:03:04.663Z,16.76
2022-09-22T12:05:42.096Z,16.74
2022-09-22T12:08:13.033Z,16.75
2022-09-22T12:10:42.596Z,16.83
2022-09-22T12:13:15.569Z,16.81
2022-09-22T12:15:48.811Z,16.84
2022-09-22T12:18:24.399Z,16.92
2022-09-22T12:20:56.300Z,16.94
2022-09-22T12:23:40.392Z,16.98
2022-09-22T12:26:11.588Z,16.99
2022-09-22T12:28:41.485Z,16.94
2022-09-22T12:31:16.196Z,16.95
2022-09-22T12:33:49.786Z,16.95
2022-09-22T12:36:17.645Z,17.00
2022-09-22T12:38:45.092Z,17.02
2022-09-22T12:41:17.453Z,17.08
2022-09-22T12:43:44.006Z,17.13
2022-09-22T12:46:21.495Z,17.12
2022-09-22T12:48:47.898Z,17.17
2022-09-22T12:51:24.371Z,17.18
2022-09-22T12:53:51.432Z,17.22
2022-09-22T12:56:40.374Z,17.24
2022-09-22T12:59:35.511Z,17.26
2022-09-22T13:02:11.006Z,17.22
2022-09-22T13:04:38.159Z,17.22
2022-09-22T13:07:05.509Z,17.23
2022-09-22T13:09:32.597Z,17.26
2022-09-22T13:12:22.825Z,17.29
2022-09-22T13:15:07.486Z,17.32
2022-09-22T13:17:43.406Z,17.36
2022-09-22T13:20:27.113Z,17.40
2022-09-22T13:22:55.242Z,17.40
2022-09-22T13:25:29.161Z,17.38
2022-09-22T13:28:08.122Z,17.43
2022-09-22T13:30:35.422Z,17.38
2022-09-22T13:33:02.004Z,17.37
2022-09-22T13:35:31.225Z,17.41
2022-09-22T13:37:58.278Z,17.41
2022-09-22T13:40:31.739Z,17.46
2022-09-22T13:43:05.978Z,17.40
2022-09-22T13:45:32.642Z,17.43
2022-09-22T13:48:08.901Z,17.43
2022-09-22T13:50:41.529Z,17.47
2022-09-22T13:53:08.045Z,17.51
2022-09-22T13:55:35.662Z,17.55
2022-09-22T13:58:03.054Z,17.59
2022-09-22T14:00:38.213Z,17.58
2022-09-22T14:03:18.533Z,17.59
2022-09-22T14:05:53.397Z,17.60
2022-09-22T14:08:25.487Z,17.58
2022-09-22T14:10:52.544Z,17.62
2022-09-22T14:13:38.676Z,17.61
2022-09-22T14:16:12.535Z,17.62
2022-09-22T14:18:42.996Z,17.64
2022-09-22T14:21:10.802Z,17.66
2022-09-22T14:23:46.183Z,17.66
2022-09-22T14:26:24.440Z,17.65
2022-09-22T14:28:51.926Z,17.66
2022-09-22T14:31:22.368Z,17.67
2022-09-22T14:33:49.128Z,17.67
2022-09-22T14:36:18.289Z,17.65
2022-09-22T14:38:53.351Z,17.69
2022-09-22T14:41:27.967Z,17.71
2022-09-22T14:43:54.619Z,17.70
2022-09-22T14:46:24.135Z,17.71
2022-09-22T14:48:50.918Z,17.72
2022-09-22T14:51:22.157Z,17.73
2022-09-22T14:53:55.359Z,17.72
2022-09-22T14:56:27.750Z,17.75
2022-09-22T14:58:59.487Z,17.76
2022-09-22T15:01:48.122Z,17.75
2022-09-22T15:04:23.400Z,17.75
2022-09-22T15:06:51.140Z,17.74
2022-09-22T15:09:25.252Z,17.71
2022-09-22T15:11:54.681Z,17.72
2022-09-22T15:14:40.504Z,17.75
2022-09-22T15:17:57.627Z,17.74
2022-09-22T15:20:28.186Z,17.73
2022-09-22T15:22:54.976Z,17.74
2022-09-22T15:25:21.802Z,17.72
2022-09-22T15:27:53.314Z,17.73
2022-09-22T15:30:21.792Z,17.75
2022-09-22T15:32:48.631Z,17.73
2022-09-22T15:35:18.924Z,17.77
2022-09-22T15:37:47.147Z,17.76
2022-09-22T15:40:20.269Z,17.78
2022-09-22T15:43:11.273Z,17.74
2022-09-22T15:45:35.909Z,17.71
2022-09-22T15:48:02.410Z,17.71
2022-09-22T15:50:29.560Z,17.71
2022-09-22T15:52:56.417Z,17.67
2022-09-22T15:55:24.297Z,17.67
2022-09-22T15:57:54.692Z,17.67
2022-09-22T16:00:25.008Z,17.65
2022-09-22T16:02:52.093Z,17.65
2022-09-22T16:05:18.518Z,17.63
2022-09-22T16:07:52.580Z,17.62
2022-09-22T16:10:23.412Z,17.59
2022-09-22T16:12:50.183Z,17.58
2022-09-22T16:15:16.636Z,17.56
2022-09-22T16:17:44.757Z,17.52
2022-09-22T16:20:13.891Z,17.51
2022-09-22T16:22:41.086Z,17.50
2022-09-22T16:25:10.096Z,17.47
2022-09-22T16:27:36.494Z,17.44
2022-09-22T16:30:03.060Z,17.40
2022-09-22T16:32:29.696Z,17.37
2022-09-22T16:34:56.094Z,17.33
2022-09-22T16:37:22.753Z,17.29
2022-09-22T16:39:49.188Z,17.27
2022-09-22T16:42:21.576Z,17.25
2022-09-22T16:44:49.853Z,17.22
2022-09-22T16:47:22.669Z,17.18
2022-09-22T16:49:51.258Z,17.14
2022-09-22T16:52:19.026Z,17.11
2022-09-22T16:54:46.169Z,17.06
2022-09-22T16:57:12.563Z,17.02
2022-09-22T16:59:38.962Z,16.97
2022-09-22T17:02:05.530Z,16.90
2022-09-22T17:04:32.392Z,16.85
2022-09-22T17:06:58.795Z,16.81
2022-09-22T17:09:25.226Z,16.75
2022-09-22T17:11:52.544Z,16.70
2022-09-22T17:14:24.329Z,16.66
2022-09-22T17:16:52.455Z,16.61
2022-09-22T17:19:23.995Z,16.57
2022-09-22T17:21:52.704Z,16.50
2022-09-22T17:24:19.382Z,16.44
2022-09-22T17:26:48.110Z,16.38
2022-09-22T17:29:16.165Z,16.32
2022-09-22T17:31:43.904Z,16.26
2022-09-22T17:34:11.934Z,16.22
2022-09-22T17:36:38.446Z,16.17
2022-09-22T17:39:05.797Z,16.13
2022-09-22T17:41:33.550Z,16.08
2022-09-22T17:44:02.867Z,16.05
2022-09-22T17:46:31.571Z,16.01
2022-09-22T17:49:17.174Z,15.97
2022-09-22T17:52:04.104Z,15.92
2022-09-22T17:54:51.705Z,15.88
2022-09-22T17:57:23.665Z,15.82
2022-09-22T17:59:50.668Z,15.77
2022-09-22T18:02:19.614Z,15.75
2022-09-22T18:04:46.660Z,15.70
2022-09-22T18:07:17.763Z,15.68
2022-09-22T18:09:46.236Z,15.65
2022-09-22T18:12:16.443Z,15.62
2022-09-22T18:14:46.679Z,15.59
2022-09-22T18:17:14.640Z,15.54
2022-09-22T18:19:42.983Z,15.51
2022-09-22T18:22:14.005Z,15.47
2022-09-22T18:24:40.411Z,15.43
2022-09-22T18:27:06.796Z,15.38
2022-09-22T18:29:33.252Z,15.33
2022-09-22T18:31:59.661Z,15.30
2022-09-22T18:34:31.701Z,15.25
2022-09-22T18:37:02.038Z,15.22
2022-09-22T18:39:28.811Z,15.18
2022-09-22T18:41:55.403Z,15.15
2022-09-22T18:44:23.519Z,15.12
2022-09-22T18:46:49.977Z,15.09
2022-09-22T18:49:17.166Z,15.06
2022-09-22T18:51:49.163Z,15.02
2022-09-22T18:54:21.863Z,14.98
2022-09-22T18:56:49.912Z,14.95
2022-09-22T18:59:18.877Z,14.93
2022-09-22T19:01:46.207Z,14.88
2022-09-22T19:04:17.646Z,14.84
2022-09-22T19:07:03.577Z,14.81
2022-09-22T19:09:29.978Z,14.77
2022-09-22T19:11:56.475Z,14.74
2022-09-22T19:14:22.909Z,14.69
2022-09-22T19:16:49.298Z,14.65
2022-09-22T19:19:16.619Z,14.61
2022-09-22T19:21:43.088Z,14.56
2022-09-22T19:24:10.456Z,14.52
2022-09-22T19:26:37.835Z,14.48
2022-09-22T19:29:05.702Z,14.42
2022-09-22T19:31:33.106Z,14.38
2022-09-22T19:33:59.571Z,14.33
2022-09-22T19:36:25.966Z,14.29
2022-09-22T19:38:52.374Z,14.26
2022-09-22T19:41:18.774Z,14.20
2022-09-22T19:43:45.173Z,14.15
2022-09-22T19:46:11.607Z,14.09
2022-09-22T19:48:38.110Z,14.00
2022-09-22T19:51:05.070Z,13.96
2022-09-22T19:53:31.694Z,13.87
2022-09-22T19:55:58.266Z,13.81
2022-09-22T19:58:25.322Z,13.75
2022-09-22T20:00:52.301Z,13.70
2022-09-22T20:03:19.607Z,13.65
2022-09-22T20:05:46.517Z,13.60
2022-09-22T20:08:15.787Z,13.56
2022-09-22T20:10:43.870Z,13.50
2022-09-22T20:13:30.217Z,13.50
2022-09-22T20:15:57.954Z,13.46
2022-09-22T20:18:24.642Z,13.43
2022-09-22T20:20:52.836Z,13.41
2022-09-22T20:23:21.561Z,13.38
2022-09-22T20:25:49.671Z,13.34
2022-09-22T20:28:16.109Z,13.32
2022-09-22T20:30:43.121Z,13.30
2022-09-22T20:33:24.073Z,13.27
2022-09-22T20:35:52.441Z,13.24
2022-09-22T20:38:19.569Z,13.24
2022-09-22T20:40:46.165Z,13.23
2022-09-22T20:43:16.125Z,13.21
2022-09-22T20:45:43.352Z,13.20
2022-09-22T20:48:18.552Z,13.19
2022-09-22T20:50:45.959Z,13.18
2022-09-22T20:53:12.798Z,13.18
2022-09-22T20:55:39.313Z,13.18
2022-09-22T20:58:05.721Z,13.16
2022-09-22T21:00:32.126Z,13.16
2022-09-22T21:03:00.914Z,13.16
2022-09-22T21:05:27.825Z,13.15
2022-09-22T21:08:14.178Z,13.15
2022-09-22T21:10:40.583Z,13.14
2022-09-22T21:13:06.966Z,13.14
2022-09-22T21:15:33.427Z,13.12
2022-09-22T21:18:00.434Z,13.10
2022-09-22T21:20:27.061Z,13.09
2022-09-22T21:22:53.944Z,13.09
2022-09-22T21:25:20.353Z,13.10
2022-09-22T21:27:47.025Z,13.11
2022-09-22T21:30:13.490Z,13.10
2022-09-22T21:32:39.883Z,13.10
2022-09-22T21:35:06.678Z,13.11
2022-09-22T21:37:33.114Z,13.11
2022-09-22T21:39:59.514Z,13.08
2022-09-22T21:42:26.760Z,13.10
2022-09-22T21:44:53.197Z,13.09
2022-09-22T21:47:20.239Z,13.09
2022-09-22T21:49:46.662Z,13.09
2022-09-22T21:52:13.064Z,13.09
2022-09-22T21:54:39.489Z,13.09
2022-09-22T21:57:05.979Z,13.08
2022-09-22T21:59:32.373Z,13.08
2022-09-22T22:01:59.375Z,13.07
2022-09-22T22:04:25.841Z,13.02
2022-09-22T22:06:52.286Z,12.98
2022-09-22T22:09:20.874Z,12.95
2022-09-22T22:11:58.793Z,12.89
2022-09-22T22:14:32.575Z,12.86
2022-09-22T22:16:59.844Z,12.85
2022-09-22T22:19:26.989Z,12.83
2022-09-22T22:21:54.224Z,12.81
2022-09-22T22:24:23.067Z,12.80
2022-09-22T22:27:10.321Z,12.79
2022-09-22T22:29:38.617Z,12.78
2022-09-22T22:32:07.403Z,12.78
2022-09-22T22:34:34.070Z,12.77
2022-09-22T22:37:00.559Z,12.77
2022-09-22T22:39:26.990Z,12.78
2022-09-22T22:41:55.184Z,12.77
2022-09-22T22:44:21.897Z,12.77
2022-09-22T22:46:48.298Z,12.75
2022-09-22T22:49:14.712Z,12.74
2022-09-22T22:51:43.112Z,12.76
2022-09-22T22:54:14.450Z,12.74
2022-09-22T22:56:42.834Z,12.73
2022-09-22T22:59:11.047Z,12.72
2022-09-22T23:01:37.790Z,12.70
2022-09-22T23:04:07.039Z,12.70
2022-09-22T23:06:36.121Z,12.69
2022-09-22T23:09:03.905Z,12.69
2022-09-22T23:11:32.786Z,12.69
2022-09-22T23:14:02.957Z,12.68
2022-09-22T23:16:35.250Z,12.69
2022-09-22T23:19:03.803Z,12.67
2022-09-22T23:21:30.321Z,12.67
2022-09-22T23:23:56.879Z,12.66
2022-09-22T23:26:24.023Z,12.67
2022-09-22T23:28:51.422Z,12.66
2022-09-22T23:31:19.464Z,12.66
2022-09-22T23:33:47.473Z,12.66
2022-09-22T23:36:17.117Z,12.67
2022-09-22T23:38:43.536Z,12.69
2022-09-22T23:41:11.537Z,12.67
2022-09-22T23:43:37.926Z,12.67
2022-09-22T23:46:04.880Z,12.66
2022-09-22T23:48:32.008Z,12.68
2022-09-22T23:50:59.245Z,12.66
2022-09-22T23:53:29.231Z,12.66
2022-09-22T23:55:55.661Z,12.67
2022-09-22T23:58:22.118Z,12.67
